Time;durP1;ratioP1;P1;durP2;ratioP2;P2;SDS_P1;SDS_P2;PMS_P1;PMS_P2;Temp;Humidity;BMP_temperature;BMP_pressure;BME280_temperature;BME280_humidity;BME280_pressure;Samples;Min_cycle;Max_cycle;Signal;HPM_P1;HPM_P2
2024/01/10 00:00:34;;;;;;;26.40;11.07;;;;;;;;;;10371210;28;20212;-66
2024/01/10 00:05:34;;;;;;;23.90;10.13;;;;;;;;;;10368585;28;20208;-66
2024/01/10 00:10:34;;;;;;;24.37;8.50;;;;;;;;;;10371074;28;20207;-65
2024/01/10 00:15:35;;;;;;;30.53;11.23;;;;;;;;;;10371170;28;20635;-66
2024/01/10 00:20:35;;;;;;;31.67;10.87;;;;;;;;;;10370454;28;20473;-67
2024/01/10 00:25:35;;;;;;;24.57;10.70;;;;;;;;;;10367686;28;20243;-66
2024/01/10 00:30:37;;;;;;;25.77;9.30;;;;;;;;;;10370317;28;20286;-67
2024/01/10 00:35:37;;;;;;;18.77;5.67;;;;;;;;;;10370241;28;20211;-65
2024/01/10 00:40:37;;;;;;;18.67;6.50;;;;;;;;;;10370155;28;20215;-65
2024/01/10 00:45:38;;;;;;;13.23;5.77;;;;;;;;;;10367020;28;20235;-68
2024/01/10 00:50:38;;;;;;;12.23;5.20;;;;;;;;;;10369693;28;20467;-65
2024/01/10 00:55:38;;;;;;;7.67;4.27;;;;;;;;;;10369568;28;20208;-65
2024/01/10 01:00:38;;;;;;;3.60;2.80;;;;;;;;;;10369638;28;20215;-66
2024/01/10 01:05:38;;;;;;;5.27;3.20;;;;;;;;;;10366692;28;21038;-68
2024/01/10 01:10:38;;;;;;;2.80;2.33;;;;;;;;;;10369286;28;20220;-67
2024/01/10 01:15:39;;;;;;;4.93;2.67;;;;;;;;;;10369434;28;20228;-68
2024/01/10 01:20:39;;;;;;;6.90;3.38;;;;;;;;;;10365908;28;20224;-68
2024/01/10 01:25:39;;;;;;;6.33;2.90;;;;;;;;;;10369133;28;20228;-68
2024/01/10 01:30:40;;;;;;;5.03;2.53;;;;;;;;;;10368556;28;20243;-68
2024/01/10 01:35:40;;;;;;;5.57;3.27;;;;;;;;;;10368846;28;20275;-66
2024/01/10 01:40:40;;;;;;;4.17;2.70;;;;;;;;;;10365469;28;20474;-65
2024/01/10 01:45:40;;;;;;;4.30;2.67;;;;;;;;;;10368274;28;20502;-65
2024/01/10 01:50:41;;;;;;;8.20;3.30;;;;;;;;;;10368200;28;20221;-68
2024/01/10 01:55:43;;;;;;;5.47;2.77;;;;;;;;;;10368251;28;21675;-67
2024/01/10 02:00:43;;;;;;;5.83;3.17;;;;;;;;;;10364982;28;20239;-65
2024/01/10 02:05:43;;;;;;;5.87;2.93;;;;;;;;;;10367710;28;20339;-67
2024/01/10 02:10:44;;;;;;;6.43;2.47;;;;;;;;;;10367857;28;20251;-66
2024/01/10 02:15:44;;;;;;;4.47;2.40;;;;;;;;;;10367823;28;20684;-68
2024/01/10 02:20:44;;;;;;;5.63;3.03;;;;;;;;;;10372356;28;20220;-66
2024/01/10 02:25:45;;;;;;;4.73;2.67;;;;;;;;;;10375976;28;20278;-65
2024/01/10 02:30:47;;;;;;;5.73;2.30;;;;;;;;;;10375372;28;20235;-66
2024/01/10 02:35:47;;;;;;;4.03;2.73;;;;;;;;;;10375727;28;20195;-66
2024/01/10 02:40:47;;;;;;;4.90;2.50;;;;;;;;;;10372151;28;20208;-66
2024/01/10 02:45:47;;;;;;;6.23;2.63;;;;;;;;;;10375172;28;20686;-66
2024/01/10 02:50:47;;;;;;;4.73;2.70;;;;;;;;;;10374919;28;20572;-67
2024/01/10 02:55:49;;;;;;;5.67;2.20;;;;;;;;;;10372387;28;20192;-66
2024/01/10 03:00:49;;;;;;;3.73;2.47;;;;;;;;;;10374799;28;20636;-66
2024/01/10 03:05:50;;;;;;;6.43;2.70;;;;;;;;;;10374093;28;20216;-67
2024/01/10 03:10:50;;;;;;;4.80;2.73;;;;;;;;;;10374196;28;20218;-66
2024/01/10 03:15:50;;;;;;;5.60;2.40;;;;;;;;;;10371938;28;20447;-67
2024/01/10 03:20:50;;;;;;;4.30;2.80;;;;;;;;;;10373666;28;20220;-67
2024/01/10 03:25:50;;;;;;;4.03;2.63;;;;;;;;;;10373477;28;20697;-65
2024/01/10 03:30:51;;;;;;;5.43;2.93;;;;;;;;;;10371874;28;20536;-66
2024/01/10 03:35:51;;;;;;;4.57;2.80;;;;;;;;;;10371338;28;20188;-66
2024/01/10 03:40:51;;;;;;;5.33;2.43;;;;;;;;;;10372790;28;20716;-66
2024/01/10 03:45:52;;;;;;;5.80;2.63;;;;;;;;;;10372522;28;20225;-67
2024/01/10 03:50:52;;;;;;;5.83;2.67;;;;;;;;;;10371873;28;21284;-67
2024/01/10 03:55:53;;;;;;;8.17;3.03;;;;;;;;;;10370315;28;20690;-67
2024/01/10 04:00:53;;;;;;;5.37;2.70;;;;;;;;;;10371833;28;20228;-67
2024/01/10 04:05:53;;;;;;;5.47;3.00;;;;;;;;;;10372340;28;20219;-67
2024/01/10 04:10:53;;;;;;;5.57;3.10;;;;;;;;;;10371522;28;20470;-67
2024/01/10 04:15:53;;;;;;;7.23;3.20;;;;;;;;;;10369644;28;20200;-67
2024/01/10 04:20:54;;;;;;;5.37;3.13;;;;;;;;;;10369626;28;20470;-65
2024/01/10 04:25:54;;;;;;;6.83;3.03;;;;;;;;;;10371060;28;20486;-64
2024/01/10 04:30:54;;;;;;;6.27;3.10;;;;;;;;;;10380954;23;20252;-67
2024/01/10 04:35:54;;;;;;;83.37;25.30;;;;;;;;;;10326927;28;20208;-69
2024/01/10 04:40:54;;;;;;;8.17;4.77;;;;;;;;;;10329112;28;20263;-69
2024/01/10 04:45:54;;;;;;;6.20;3.10;;;;;;;;;;10329664;28;20220;-69
2024/01/10 04:50:55;;;;;;;6.43;3.30;;;;;;;;;;10327574;28;20609;-68
2024/01/10 04:55:55;;;;;;;8.80;4.10;;;;;;;;;;10330449;28;20223;-69
2024/01/10 05:00:55;;;;;;;15.73;5.90;;;;;;;;;;10329044;28;20665;-67
2024/01/10 05:05:56;;;;;;;349.67;102.40;;;;;;;;;;10328932;28;20231;-67
2024/01/10 05:10:56;;;;;;;261.27;75.80;;;;;;;;;;10326579;28;20281;-67
2024/01/10 05:15:56;;;;;;;34.90;14.47;;;;;;;;;;10328798;28;20793;-67
2024/01/10 05:20:57;;;;;;;15.77;9.27;;;;;;;;;;10328553;28;20306;-68
2024/01/10 05:25:57;;;;;;;10.43;5.00;;;;;;;;;;10328314;28;20528;-67
2024/01/10 05:30:58;;;;;;;10.37;4.93;;;;;;;;;;10325827;28;20264;-67
2024/01/10 05:35:58;;;;;;;9.23;4.07;;;;;;;;;;10327599;28;20297;-67
2024/01/10 05:40:58;;;;;;;7.83;3.30;;;;;;;;;;10327903;28;20245;-67
2024/01/10 05:45:59;;;;;;;10.93;4.20;;;;;;;;;;10324724;28;20240;-67
2024/01/10 05:51:00;;;;;;;7.33;3.73;;;;;;;;;;10326714;28;20575;-66
2024/01/10 05:56:00;;;;;;;12.70;3.70;;;;;;;;;;10327055;28;20188;-66
2024/01/10 06:01:00;;;;;;;5.77;3.60;;;;;;;;;;10327036;28;20856;-65
2024/01/10 06:06:01;;;;;;;19.60;8.90;;;;;;;;;;10325188;28;20219;-66
2024/01/10 06:11:06;;;;;;;38.57;14.90;;;;;;;;;;10327212;28;20201;-66
2024/01/10 06:16:07;;;;;;;13.63;6.50;;;;;;;;;;10327222;28;20202;-66
2024/01/10 06:21:07;;;;;;;15.13;6.17;;;;;;;;;;10327009;28;20205;-66
2024/01/10 06:26:09;;;;;;;19.77;7.57;;;;;;;;;;10324468;28;20222;-66
2024/01/10 06:31:09;;;;;;;22.93;8.77;;;;;;;;;;10324003;28;20711;-66
2024/01/10 06:36:09;;;;;;;17.60;8.77;;;;;;;;;;10320774;28;20198;-66
2024/01/10 06:41:09;;;;;;;12.37;5.53;;;;;;;;;;10318442;28;20244;-66
2024/01/10 06:46:11;;;;;;;12.67;6.07;;;;;;;;;;10318504;28;20674;-67
2024/01/10 06:51:14;;;;;;;12.47;4.93;;;;;;;;;;10325856;28;20210;-66
2024/01/10 06:56:14;;;;;;;11.27;5.90;;;;;;;;;;10322525;28;20256;-66
2024/01/10 07:01:15;;;;;;;14.43;4.87;;;;;;;;;;10326051;28;20304;-66
2024/01/10 07:06:15;;;;;;;13.60;6.80;;;;;;;;;;10328665;28;20512;-66
2024/01/10 07:11:16;;;;;;;15.00;6.53;;;;;;;;;;10321757;28;20705;-66
2024/01/10 07:16:16;;;;;;;15.67;7.70;;;;;;;;;;10330232;28;20481;-67
2024/01/10 07:21:17;;;;;;;14.53;6.20;;;;;;;;;;10326372;28;20701;-66
2024/01/10 07:26:17;;;;;;;15.20;7.10;;;;;;;;;;10332673;28;20291;-68
2024/01/10 07:31:18;;;;;;;9.30;5.30;;;;;;;;;;10332249;28;20279;-69
2024/01/10 07:36:18;;;;;;;25.17;8.77;;;;;;;;;;10332706;28;20211;-69
2024/01/10 07:41:18;;;;;;;22.43;8.97;;;;;;;;;;10331158;28;20225;-69
2024/01/10 07:46:18;;;;;;;19.23;8.60;;;;;;;;;;10332597;28;20236;-69
2024/01/10 07:51:19;;;;;;;16.03;7.33;;;;;;;;;;10332240;28;20214;-69
2024/01/10 07:56:19;;;;;;;18.87;8.27;;;;;;;;;;10328551;28;20208;-69
2024/01/10 08:01:20;;;;;;;13.83;6.43;;;;;;;;;;10317460;23;20238;-68
2024/01/10 08:06:21;;;;;;;23.90;8.27;;;;;;;;;;10282645;28;20226;-66
2024/01/10 08:11:21;;;;;;;16.00;8.03;;;;;;;;;;10284074;28;20635;-66
2024/01/10 08:16:22;;;;;;;15.23;7.80;;;;;;;;;;10285341;28;20258;-67
2024/01/10 08:21:22;;;;;;;15.25;7.22;;;;;;;;;;10287385;28;20215;-66
2024/01/10 08:26:22;;;;;;;22.57;8.03;;;;;;;;;;10288737;28;20214;-67
2024/01/10 08:31:23;;;;;;;18.67;7.50;;;;;;;;;;10270037;28;20206;-66
2024/01/10 08:36:24;;;;;;;16.43;7.23;;;;;;;;;;10277686;28;20198;-66
2024/01/10 08:41:24;;;;;;;15.67;7.40;;;;;;;;;;10272860;28;20215;-69
2024/01/10 08:46:24;;;;;;;17.37;6.53;;;;;;;;;;10288623;28;20690;-67
2024/01/10 08:51:24;;;;;;;15.23;7.20;;;;;;;;;;10287625;28;20215;-68
2024/01/10 08:56:24;;;;;;;12.73;6.97;;;;;;;;;;10284954;28;20206;-65
2024/01/10 09:01:25;;;;;;;14.47;7.27;;;;;;;;;;10272880;28;20245;-66
2024/01/10 09:06:26;;;;;;;16.47;8.77;;;;;;;;;;10276940;28;20222;-68
2024/01/10 09:11:26;;;;;;;18.50;11.93;;;;;;;;;;10286543;28;20218;-67
2024/01/10 09:16:26;;;;;;;23.53;12.50;;;;;;;;;;10283636;28;20210;-68
2024/01/10 09:21:27;;;;;;;21.37;12.37;;;;;;;;;;10283485;28;20215;-66
2024/01/10 09:26:27;;;;;;;25.83;13.00;;;;;;;;;;10285361;28;20504;-67
2024/01/10 09:31:27;;;;;;;12.87;6.70;;;;;;;;;;10285248;28;20242;-68
2024/01/10 09:36:27;;;;;;;28.83;14.57;;;;;;;;;;10283038;28;20199;-68
2024/01/10 09:41:28;;;;;;;8.60;4.10;;;;;;;;;;10281084;28;20275;-68
2024/01/10 09:46:29;;;;;;;4.10;2.23;;;;;;;;;;10284981;28;20726;-68
2024/01/10 09:51:31;;;;;;;3.60;1.93;;;;;;;;;;10284964;28;20210;-68
2024/01/10 09:56:32;;;;;;;6.30;3.23;;;;;;;;;;10280556;28;20294;-67
2024/01/10 10:01:32;;;;;;;5.23;2.30;;;;;;;;;;10282318;28;20798;-65
2024/01/10 10:06:32;;;;;;;2.80;1.93;;;;;;;;;;10284597;28;20206;-68
2024/01/10 10:11:32;;;;;;;4.97;2.05;;;;;;;;;;10279941;28;20478;-65
2024/01/10 10:16:33;;;;;;;1.73;1.60;;;;;;;;;;10282020;28;20198;-67
2024/01/10 10:21:33;;;;;;;7.63;2.33;;;;;;;;;;10269628;28;20264;-66
2024/01/10 10:26:34;;;;;;;6.57;2.37;;;;;;;;;;10273463;28;20217;-66
2024/01/10 10:31:35;;;;;;;10.60;6.83;;;;;;;;;;10266742;28;20247;-65
2024/01/10 10:36:35;;;;;;;6.17;2.93;;;;;;;;;;10268589;28;20194;-66
2024/01/10 10:41:36;;;;;;;5.13;2.60;;;;;;;;;;10283994;28;20211;-65
2024/01/10 10:46:37;;;;;;;3.00;2.20;;;;;;;;;;10290959;28;20759;-67
2024/01/10 10:51:38;;;;;;;4.87;2.47;;;;;;;;;;10288988;28;20265;-65
2024/01/10 10:56:38;;;;;;;3.23;2.23;;;;;;;;;;10291350;28;20274;-65
2024/01/10 11:01:39;;;;;;;2.93;1.87;;;;;;;;;;10288510;28;20712;-67
2024/01/10 11:06:40;;;;;;;11.63;1.93;;;;;;;;;;10290668;28;20226;-66
2024/01/10 11:11:50;;;;;;;2.40;1.87;;;;;;;;;;10288208;28;20245;-68
2024/01/10 11:17:09;;;;;;;2.47;1.70;;;;;;;;;;10286110;28;20197;-66
2024/01/10 11:22:09;;;;;;;1.13;1.10;;;;;;;;;;10302828;28;20217;-67
2024/01/10 11:27:14;;;;;;;2.87;1.90;;;;;;;;;;10282528;28;20219;-67
2024/01/10 11:32:15;;;;;;;3.17;1.83;;;;;;;;;;10274600;28;21027;-67
2024/01/10 11:37:15;;;;;;;3.53;2.00;;;;;;;;;;10273126;28;20209;-65
2024/01/10 11:42:23;;;;;;;3.30;2.00;;;;;;;;;;10272753;28;20723;-67
2024/01/10 11:47:24;;;;;;;4.90;2.20;;;;;;;;;;10268926;28;20274;-67
2024/01/10 11:52:32;;;;;;;2.97;1.97;;;;;;;;;;10270013;28;20301;-66
2024/01/10 11:57:32;;;;;;;1.83;1.33;;;;;;;;;;10273609;28;20195;-66
2024/01/10 12:02:32;;;;;;;2.73;2.33;;;;;;;;;;10271198;28;20227;-66
2024/01/10 12:07:32;;;;;;;5.37;2.60;;;;;;;;;;10272947;28;20219;-66
2024/01/10 12:12:32;;;;;;;4.60;2.20;;;;;;;;;;10282157;28;20221;-68
2024/01/10 12:17:32;;;;;;;2.53;2.00;;;;;;;;;;10285667;28;20194;-67
2024/01/10 12:22:33;;;;;;;3.90;2.40;;;;;;;;;;10284295;28;20615;-67
2024/01/10 12:27:33;;;;;;;3.90;2.33;;;;;;;;;;10285405;28;20222;-66
2024/01/10 12:32:33;;;;;;;3.80;2.10;;;;;;;;;;10286548;28;20214;-67
2024/01/10 12:37:33;;;;;;;4.33;2.50;;;;;;;;;;10286919;28;20182;-67
2024/01/10 12:42:33;;;;;;;3.23;1.97;;;;;;;;;;10287483;28;20318;-66
2024/01/10 12:47:34;;;;;;;6.03;2.60;;;;;;;;;;10284268;28;20218;-66
2024/01/10 12:52:39;;;;;;;4.50;3.07;;;;;;;;;;10282296;28;20221;-66
2024/01/10 12:57:39;;;;;;;3.93;2.40;;;;;;;;;;10284493;28;20199;-66
2024/01/10 13:02:40;;;;;;;4.53;2.13;;;;;;;;;;10285520;28;20238;-67
2024/01/10 13:07:40;;;;;;;3.90;2.80;;;;;;;;;;10283700;28;20301;-66
2024/01/10 13:12:40;;;;;;;3.63;2.40;;;;;;;;;;10282402;28;20636;-67
2024/01/10 13:17:40;;;;;;;4.37;2.67;;;;;;;;;;10278618;28;20182;-67
2024/01/10 13:22:40;;;;;;;5.37;3.83;;;;;;;;;;10274556;28;20674;-65
2024/01/10 13:27:40;;;;;;;10.33;4.73;;;;;;;;;;10273518;28;20225;-67
2024/01/10 13:32:41;;;;;;;17.70;8.03;;;;;;;;;;10277806;28;20245;-66
2024/01/10 13:37:41;;;;;;;5.67;3.57;;;;;;;;;;10277894;28;20183;-66
2024/01/10 13:42:44;;;;;;;8.20;5.03;;;;;;;;;;10279004;28;20218;-66
2024/01/10 13:47:45;;;;;;;7.40;5.13;;;;;;;;;;10284834;28;20217;-67
2024/01/10 13:52:45;;;;;;;8.10;5.83;;;;;;;;;;10284270;28;20278;-66
2024/01/10 13:57:45;;;;;;;10.77;6.53;;;;;;;;;;10277778;28;20666;-66
2024/01/10 14:02:45;;;;;;;9.80;6.27;;;;;;;;;;10278992;28;20234;-66
2024/01/10 14:07:46;;;;;;;10.07;6.53;;;;;;;;;;10282600;28;21596;-67
2024/01/10 14:12:47;;;;;;;9.57;6.33;;;;;;;;;;10281263;28;20265;-66
2024/01/10 14:17:48;;;;;;;9.40;5.70;;;;;;;;;;10282298;28;20943;-65
2024/01/10 14:22:50;;;;;;;9.87;5.13;;;;;;;;;;10277446;28;20300;-66
2024/01/10 14:27:51;;;;;;;23.70;11.47;;;;;;;;;;10278479;28;20194;-67
2024/01/10 14:32:51;;;;;;;75.50;37.30;;;;;;;;;;10274865;28;20206;-67
2024/01/10 14:37:53;;;;;;;11.50;6.23;;;;;;;;;;10283070;28;20221;-68
2024/01/10 14:42:53;;;;;;;11.27;5.83;;;;;;;;;;10276916;28;20845;-69
2024/01/10 14:47:53;;;;;;;22.17;6.93;;;;;;;;;;10273663;28;20195;-68
2024/01/10 14:52:53;;;;;;;10.90;5.87;;;;;;;;;;10281991;28;20219;-69
2024/01/10 14:57:54;;;;;;;9.50;5.77;;;;;;;;;;10280295;28;20482;-69
2024/01/10 15:02:55;;;;;;;13.93;6.20;;;;;;;;;;10279057;28;20244;-68
2024/01/10 15:07:55;;;;;;;10.57;6.63;;;;;;;;;;10275603;28;20190;-67
2024/01/10 15:12:55;;;;;;;28.03;14.23;;;;;;;;;;10281091;28;20693;-68
2024/01/10 15:17:55;;;;;;;10.07;5.77;;;;;;;;;;10279778;28;20996;-69
2024/01/10 15:22:55;;;;;;;13.40;6.53;;;;;;;;;;10274491;28;20595;-68
2024/01/10 15:27:56;;;;;;;11.60;5.13;;;;;;;;;;10282990;28;20677;-68
2024/01/10 15:32:57;;;;;;;10.93;5.43;;;;;;;;;;10286540;28;20210;-69
2024/01/10 15:37:58;;;;;;;13.90;6.43;;;;;;;;;;10290251;28;20258;-68
2024/01/10 15:42:58;;;;;;;15.47;7.07;;;;;;;;;;10289151;28;20504;-69
2024/01/10 15:47:58;;;;;;;12.90;6.73;;;;;;;;;;10284310;28;20213;-69
2024/01/10 15:52:58;;;;;;;11.77;6.13;;;;;;;;;;10285516;28;20425;-69
2024/01/10 15:57:58;;;;;;;14.63;8.55;;;;;;;;;;10287733;28;20223;-68
2024/01/10 16:02:58;;;;;;;15.97;8.00;;;;;;;;;;10284009;28;20230;-69
2024/01/10 16:07:59;;;;;;;10.53;6.43;;;;;;;;;;10283913;28;20693;-69
2024/01/10 16:12:59;;;;;;;20.07;11.90;;;;;;;;;;10287096;28;20211;-69
2024/01/10 16:17:59;;;;;;;34.00;13.43;;;;;;;;;;10285608;28;20233;-69
2024/01/10 16:23:00;;;;;;;30.40;13.73;;;;;;;;;;10280883;28;20645;-69
2024/01/10 16:28:01;;;;;;;48.57;20.63;;;;;;;;;;10283870;28;20658;-69
2024/01/10 16:33:01;;;;;;;57.60;21.53;;;;;;;;;;10285585;28;20218;-69
2024/01/10 16:38:02;;;;;;;29.20;12.60;;;;;;;;;;10282024;28;20232;-69
2024/01/10 16:43:02;;;;;;;15.50;8.30;;;;;;;;;;10276933;28;20211;-69
2024/01/10 16:48:03;;;;;;;21.33;9.93;;;;;;;;;;10284422;28;20203;-69
2024/01/10 16:53:03;;;;;;;23.13;9.27;;;;;;;;;;10287004;28;20218;-69
2024/01/10 16:58:03;;;;;;;16.03;7.97;;;;;;;;;;10284019;28;20226;-69
2024/01/10 17:03:03;;;;;;;36.80;19.07;;;;;;;;;;10283457;28;20268;-69
2024/01/10 17:08:03;;;;;;;20.60;9.13;;;;;;;;;;10281652;28;20285;-69
2024/01/10 17:13:04;;;;;;;19.10;9.57;;;;;;;;;;10286745;28;20756;-69
2024/01/10 17:18:05;;;;;;;17.27;8.43;;;;;;;;;;10288648;28;20486;-69
2024/01/10 17:23:05;;;;;;;23.93;11.33;;;;;;;;;;10285750;28;20668;-69
2024/01/10 17:28:05;;;;;;;27.67;13.60;;;;;;;;;;10280606;28;20277;-69
2024/01/10 17:33:08;;;;;;;218.27;62.17;;;;;;;;;;10288503;28;20210;-70
2024/01/10 17:38:08;;;;;;;75.57;27.63;;;;;;;;;;10286028;28;20227;-68
2024/01/10 17:43:09;;;;;;;82.32;32.30;;;;;;;;;;10285731;28;20713;-68
2024/01/10 17:48:09;;;;;;;38.30;19.10;;;;;;;;;;10286358;28;20246;-68
2024/01/10 17:53:09;;;;;;;19.03;11.27;;;;;;;;;;10287297;28;20221;-68
2024/01/10 17:58:09;;;;;;;18.97;9.60;;;;;;;;;;10283066;28;20253;-68
2024/01/10 18:03:09;;;;;;;29.43;15.77;;;;;;;;;;10286736;28;20474;-68
2024/01/10 18:08:10;;;;;;;26.27;12.40;;;;;;;;;;10286820;28;20225;-68
2024/01/10 18:13:10;;;;;;;19.50;9.90;;;;;;;;;;10286434;28;20202;-68
2024/01/10 18:18:10;;;;;;;35.17;18.13;;;;;;;;;;10284509;28;20214;-68
2024/01/10 18:23:11;;;;;;;32.57;14.93;;;;;;;;;;10286494;28;20592;-67
2024/01/10 18:28:11;;;;;;;28.73;15.83;;;;;;;;;;10284150;28;20194;-67
2024/01/10 18:33:11;;;;;;;23.67;11.93;;;;;;;;;;10286133;28;20211;-69
2024/01/10 18:38:16;;;;;;;18.37;9.10;;;;;;;;;;10283627;28;20221;-67
2024/01/10 18:43:16;;;;;;;21.40;8.20;;;;;;;;;;10285806;28;20903;-67
2024/01/10 18:48:16;;;;;;;17.77;10.10;;;;;;;;;;10286027;28;20183;-67
2024/01/10 18:53:16;;;;;;;16.83;8.13;;;;;;;;;;10286230;28;20206;-67
2024/01/10 18:58:16;;;;;;;16.97;8.50;;;;;;;;;;10278521;28;20711;-67
2024/01/10 19:03:17;;;;;;;13.90;7.13;;;;;;;;;;10285921;28;20244;-69
2024/01/10 19:08:17;;;;;;;20.20;9.60;;;;;;;;;;10289608;28;20217;-67
2024/01/10 19:13:17;;;;;;;23.73;10.77;;;;;;;;;;10278947;28;20302;-69
2024/01/10 19:18:17;;;;;;;18.08;8.10;;;;;;;;;;10276543;28;20480;-67
2024/01/10 19:23:18;;;;;;;17.63;6.83;;;;;;;;;;10275069;28;20294;-67
2024/01/10 19:28:19;;;;;;;16.70;8.73;;;;;;;;;;10288348;28;20195;-67
2024/01/10 19:33:19;;;;;;;17.33;7.90;;;;;;;;;;10290065;28;20210;-67
2024/01/10 19:38:19;;;;;;;15.77;8.47;;;;;;;;;;10291986;28;20213;-67
2024/01/10 19:43:23;;;;;;;13.57;6.40;;;;;;;;;;10291782;28;20882;-67
2024/01/10 19:48:23;;;;;;;5.47;4.13;;;;;;;;;;10290073;28;20192;-67
2024/01/10 19:53:24;;;;;;;8.20;4.47;;;;;;;;;;10289279;28;20602;-67
2024/01/10 19:58:24;;;;;;;11.40;6.67;;;;;;;;;;10291188;28;20717;-67
2024/01/10 20:03:25;;;;;;;5.43;3.53;;;;;;;;;;10291172;28;20296;-67
2024/01/10 20:08:26;;;;;;;7.87;4.20;;;;;;;;;;10290982;28;20294;-67
2024/01/10 20:13:26;;;;;;;17.43;7.07;;;;;;;;;;10290070;28;20305;-67
2024/01/10 20:18:26;;;;;;;10.07;4.77;;;;;;;;;;10290419;28;20218;-67
2024/01/10 20:23:27;;;;;;;16.20;7.23;;;;;;;;;;10290398;28;20219;-67
2024/01/10 20:28:28;;;;;;;6.77;3.60;;;;;;;;;;10287759;28;20272;-66
2024/01/10 20:33:28;;;;;;;18.87;7.33;;;;;;;;;;10273928;28;20661;-68
2024/01/10 20:38:29;;;;;;;16.63;7.10;;;;;;;;;;10274611;28;20487;-67
2024/01/10 20:43:29;;;;;;;6.23;4.23;;;;;;;;;;10281004;28;20699;-67
2024/01/10 20:48:29;;;;;;;18.93;7.73;;;;;;;;;;10284584;28;20456;-66
2024/01/10 20:53:29;;;;;;;12.60;4.60;;;;;;;;;;10286972;28;21186;-67
2024/01/10 20:58:29;;;;;;;13.63;5.33;;;;;;;;;;10289387;28;20274;-67
2024/01/10 21:03:30;;;;;;;12.33;5.80;;;;;;;;;;10281896;28;20739;-67
2024/01/10 21:08:30;;;;;;;7.00;3.87;;;;;;;;;;10281068;28;20203;-67
2024/01/10 21:13:30;;;;;;;7.40;4.13;;;;;;;;;;10278667;28;20242;-67
2024/01/10 21:18:31;;;;;;;6.80;4.30;;;;;;;;;;10268805;28;20327;-67
2024/01/10 21:23:31;;;;;;;8.77;4.53;;;;;;;;;;10286561;28;20834;-67
2024/01/10 21:28:31;;;;;;;4.57;2.93;;;;;;;;;;10286046;28;20201;-67
2024/01/10 21:33:31;;;;;;;7.73;5.00;;;;;;;;;;10287968;28;20461;-67
2024/01/10 21:38:32;;;;;;;8.97;4.87;;;;;;;;;;10287960;28;20223;-69
2024/01/10 21:43:32;;;;;;;11.40;5.13;;;;;;;;;;10287488;28;20198;-67
2024/01/10 21:48:33;;;;;;;6.43;4.20;;;;;;;;;;10285645;28;20674;-66
2024/01/10 21:53:33;;;;;;;7.50;3.80;;;;;;;;;;10287785;28;20222;-66
2024/01/10 21:58:34;;;;;;;7.13;4.05;;;;;;;;;;10287860;28;20215;-69
2024/01/10 22:03:34;;;;;;;10.00;5.47;;;;;;;;;;10286731;28;20261;-66
2024/01/10 22:08:35;;;;;;;11.43;5.73;;;;;;;;;;10283068;28;20241;-66
2024/01/10 22:13:35;;;;;;;8.80;4.23;;;;;;;;;;10287291;28;20300;-66
2024/01/10 22:18:36;;;;;;;8.13;4.07;;;;;;;;;;10286562;28;20218;-67
2024/01/10 22:23:36;;;;;;;6.67;3.90;;;;;;;;;;10285738;28;20298;-67
2024/01/10 22:28:36;;;;;;;12.53;4.90;;;;;;;;;;10279664;28;20290;-67
2024/01/10 22:33:36;;;;;;;8.47;3.20;;;;;;;;;;10286077;28;20245;-67
2024/01/10 22:38:37;;;;;;;9.17;3.57;;;;;;;;;;10292463;28;20210;-66
2024/01/10 22:43:37;;;;;;;10.43;5.07;;;;;;;;;;10289899;28;20202;-66
2024/01/10 22:48:37;;;;;;;9.70;4.70;;;;;;;;;;10292110;28;20198;-69
2024/01/10 22:53:38;;;;;;;8.23;4.55;;;;;;;;;;10291646;28;20215;-66
2024/01/10 22:58:38;;;;;;;6.87;3.43;;;;;;;;;;10289391;28;20211;-66
2024/01/10 23:03:39;;;;;;;6.27;3.33;;;;;;;;;;10308209;22;998736;-68
2024/01/10 23:08:39;;;;;;;5.10;2.90;;;;;;;;;;10333078;28;20225;-68
2024/01/10 23:13:39;;;;;;;5.67;3.53;;;;;;;;;;10333868;28;20457;-68
2024/01/10 23:18:39;;;;;;;3.00;2.30;;;;;;;;;;10334142;28;20248;-68
2024/01/10 23:23:41;;;;;;;8.03;5.50;;;;;;;;;;10333149;28;20580;-68
2024/01/10 23:28:42;;;;;;;6.77;3.57;;;;;;;;;;10333363;28;20222;-68
2024/01/10 23:33:42;;;;;;;7.67;4.97;;;;;;;;;;10333000;28;20205;-68
2024/01/10 23:38:42;;;;;;;8.90;4.83;;;;;;;;;;10330646;28;20321;-68
2024/01/10 23:43:42;;;;;;;5.97;3.37;;;;;;;;;;10333001;28;20252;-68
2024/01/10 23:48:43;;;;;;;5.43;3.40;;;;;;;;;;10332157;28;20209;-68
2024/01/10 23:53:43;;;;;;;5.70;3.13;;;;;;;;;;10332674;28;20579;-68
2024/01/10 23:58:43;;;;;;;4.27;2.80;;;;;;;;;;10329821;28;20186;-68
